Time;durP1;ratioP1;P1;durP2;ratioP2;P2;SDS_P1;SDS_P2;PMS_P1;PMS_P2;Temp;Humidity;BMP_temperature;BMP_pressure;BME280_temperature;BME280_humidity;BME280_pressure;Samples;Min_cycle;Max_cycle;Signal;HPM_P1;HPM_P2
2022/01/31 00:01:44;;;;;;;13.93;3.93;;;;;;;-145.69;100.00;73436.56;5074542;28;20206;-75
2022/01/31 00:04:14;;;;;;;20.70;4.70;;;;;;;-145.69;100.00;73432.56;5074431;28;20696;-75
2022/01/31 00:06:42;;;;;;;32.00;4.23;;;;;;;-145.69;100.00;73426.59;5074373;28;20199;-75
2022/01/31 00:09:14;;;;;;;16.40;4.73;;;;;;;-145.69;100.00;73400.72;5074138;28;20726;-75
2022/01/31 00:11:45;;;;;;;30.70;5.13;;;;;;;-145.69;100.00;73388.78;5074715;28;20199;-75
2022/01/31 00:14:27;;;;;;;31.10;5.30;;;;;;;-145.69;100.00;73392.75;5073411;28;20797;-75
2022/01/31 00:16:54;;;;;;;20.83;4.83;;;;;;;-145.69;100.00;73394.75;5074348;28;20210;-75
2022/01/31 00:19:20;;;;;;;31.77;5.70;;;;;;;-145.69;100.00;73378.81;5074386;28;20210;-75
2022/01/31 00:21:48;;;;;;;32.00;5.90;;;;;;;-145.69;100.00;73354.94;5068641;28;20685;-75
2022/01/31 00:24:15;;;;;;;22.90;5.67;;;;;;;-145.69;100.00;73337.00;5054051;28;20314;-75
2022/01/31 00:26:41;;;;;;;19.13;5.53;;;;;;;-145.69;100.00;73317.09;5072212;28;20550;-75
2022/01/31 00:29:08;;;;;;;29.23;6.17;;;;;;;-145.69;100.00;73305.16;5074086;28;20202;-74
2022/01/31 00:31:35;;;;;;;28.30;6.33;;;;;;;-145.69;100.00;73285.25;5072799;28;20230;-75
2022/01/31 00:34:01;;;;;;;32.47;6.80;;;;;;;-145.69;100.00;73269.31;5073718;28;20206;-75
2022/01/31 00:36:27;;;;;;;29.77;6.80;;;;;;;-145.69;100.00;73265.34;5073759;28;20203;-76
2022/01/31 00:38:55;;;;;;;24.67;6.20;;;;;;;-145.69;100.00;73265.34;5073403;28;20719;-75
2022/01/31 00:41:22;;;;;;;18.93;5.53;;;;;;;-145.69;100.00;73253.41;5072273;28;20225;-76
2022/01/31 00:43:58;;;;;;;24.33;5.53;;;;;;;-145.69;100.00;73239.47;5073605;28;20567;-75
2022/01/31 00:46:29;;;;;;;28.73;5.73;;;;;;;-145.69;100.00;73233.50;5073641;28;20212;-75
2022/01/31 00:48:56;;;;;;;13.67;5.70;;;;;;;-145.69;100.00;73251.41;5073236;28;20704;-75
2022/01/31 00:51:24;;;;;;;28.17;4.97;;;;;;;-145.69;100.00;73249.41;5073571;28;20198;-75
2022/01/31 00:53:50;;;;;;;22.03;5.33;;;;;;;-145.69;100.00;73261.34;5073288;28;20227;-76
2022/01/31 00:56:18;;;;;;;27.57;5.43;;;;;;;-145.69;100.00;73269.31;5073414;28;20199;-75
2022/01/31 00:58:44;;;;;;;22.07;5.00;;;;;;;-145.69;100.00;73269.31;5073212;28;20206;-75
2022/01/31 01:01:13;;;;;;;20.33;5.37;;;;;;;-145.69;100.00;73259.38;5073365;28;20566;-75
2022/01/31 01:03:41;;;;;;;15.47;5.40;;;;;;;-145.69;100.00;73251.41;5072993;28;20230;-75
2022/01/31 01:06:07;;;;;;;23.00;5.27;;;;;;;-145.69;100.00;73213.56;5073111;28;20221;-75
2022/01/31 01:08:37;;;;;;;26.57;5.03;;;;;;;-145.69;100.00;73181.72;5073405;28;20211;-75
2022/01/31 01:11:05;;;;;;;27.00;5.77;;;;;;;-145.69;100.00;73171.78;5073216;28;20728;-75
2022/01/31 01:13:33;;;;;;;21.47;4.73;;;;;;;-145.69;100.00;73151.88;5073259;28;20324;-75
2022/01/31 01:16:04;;;;;;;18.43;4.43;;;;;;;-145.69;100.00;73137.94;5073224;28;20205;-75
2022/01/31 01:18:33;;;;;;;18.70;4.20;;;;;;;-145.69;100.00;73137.94;5073259;28;20290;-75
2022/01/31 01:21:00;;;;;;;12.40;4.13;;;;;;;-145.69;100.00;73151.88;5072924;28;20187;-74
2022/01/31 01:23:26;;;;;;;14.67;3.80;;;;;;;-145.69;100.00;73145.91;5072825;28;20590;-75
2022/01/31 01:25:53;;;;;;;20.90;3.73;;;;;;;-145.69;100.00;73131.97;5072952;28;20653;-75
2022/01/31 01:28:21;;;;;;;22.50;4.77;;;;;;;-145.69;100.00;73118.03;5072839;28;20592;-75
2022/01/31 01:30:51;;;;;;;26.63;4.57;;;;;;;-145.69;100.00;73110.06;5073049;28;20287;-75
2022/01/31 01:33:21;;;;;;;25.20;5.17;;;;;;;-145.69;100.00;73126.00;5072732;28;20209;-75
2022/01/31 01:35:53;;;;;;;15.13;4.00;;;;;;;-145.69;100.00;73126.00;5072392;28;20190;-74
2022/01/31 01:38:27;;;;;;;35.33;4.50;;;;;;;-145.69;100.00;73127.97;5072747;28;20206;-75
2022/01/31 01:40:54;;;;;;;19.60;3.40;;;;;;;-145.69;100.00;73145.91;5072580;28;20251;-75
2022/01/31 01:43:21;;;;;;;17.13;5.20;;;;;;;-145.69;100.00;73155.84;5072956;28;20309;-75
2022/01/31 01:46:00;;;;;;;17.37;4.87;;;;;;;-145.69;100.00;73145.91;5072771;28;20202;-75
2022/01/31 01:48:27;;;;;;;15.13;5.20;;;;;;;-145.69;100.00;73153.84;5072492;28;20657;-75
2022/01/31 01:50:55;;;;;;;19.90;4.90;;;;;;;-145.69;100.00;73135.94;5071505;28;20233;-75
2022/01/31 01:53:22;;;;;;;17.97;4.73;;;;;;;-145.69;100.00;73110.06;5071514;28;20342;-75
2022/01/31 01:55:51;;;;;;;17.10;4.83;;;;;;;-145.69;100.00;73100.09;5072784;28;20285;-75
2022/01/31 01:58:17;;;;;;;20.03;5.43;;;;;;;-145.69;100.00;73094.13;5072375;28;20286;-75
2022/01/31 02:00:50;;;;;;;21.83;5.43;;;;;;;-145.69;100.00;73094.13;5072650;28;20205;-75
2022/01/31 02:03:18;;;;;;;29.00;4.97;;;;;;;-145.69;100.00;73102.09;5072226;28;20194;-75
2022/01/31 02:05:45;;;;;;;21.13;5.73;;;;;;;-145.69;100.00;73112.06;5072780;28;20575;-75
2022/01/31 02:08:13;;;;;;;16.20;5.27;;;;;;;-145.69;100.00;73076.22;5072581;28;20653;-75
2022/01/31 02:10:40;;;;;;;24.93;5.50;;;;;;;-145.69;100.00;73066.25;5072925;28;20637;-75
2022/01/31 02:13:10;;;;;;;18.87;4.83;;;;;;;-145.69;100.00;73060.28;5072474;28;20206;-76
2022/01/31 02:15:39;;;;;;;13.80;4.80;;;;;;;-145.69;100.00;73048.34;5072579;28;20202;-75
2022/01/31 02:18:06;;;;;;;10.60;4.30;;;;;;;-145.69;100.00;73058.31;5072435;28;20199;-75
2022/01/31 02:20:39;;;;;;;22.70;4.87;;;;;;;-145.69;100.00;73034.41;5072647;28;20199;-76
2022/01/31 02:23:07;;;;;;;30.73;5.70;;;;;;;-145.69;100.00;73026.44;5060298;28;20673;-75
2022/01/31 02:25:34;;;;;;;20.10;5.40;;;;;;;-145.69;100.00;73016.50;5052276;28;20227;-75
2022/01/31 02:28:01;;;;;;;18.30;5.43;;;;;;;-145.69;100.00;72988.63;5070459;28;20233;-76
2022/01/31 02:30:27;;;;;;;21.90;5.63;;;;;;;-145.69;100.00;72968.72;5072105;28;20210;-75
2022/01/31 02:32:54;;;;;;;19.57;5.83;;;;;;;-145.69;100.00;72982.66;5072116;28;20195;-75
2022/01/31 02:35:20;;;;;;;17.87;6.00;;;;;;;-145.69;100.00;72978.69;5072466;28;20568;-75
2022/01/31 02:37:48;;;;;;;18.53;4.97;;;;;;;-145.69;100.00;72960.75;5072329;28;20213;-74
2022/01/31 02:40:15;;;;;;;21.33;5.13;;;;;;;-145.69;100.00;72918.97;5071975;28;20230;-75
2022/01/31 02:42:41;;;;;;;19.23;5.30;;;;;;;-145.69;100.00;72916.97;5071952;28;20225;-75
2022/01/31 02:45:08;;;;;;;30.17;5.83;;;;;;;-145.69;100.00;72895.06;5072212;28;20234;-75
2022/01/31 02:47:40;;;;;;;16.73;5.40;;;;;;;-145.69;100.00;72899.06;5072219;28;20203;-75
2022/01/31 02:50:14;;;;;;;18.10;5.10;;;;;;;-145.69;100.00;72948.81;5072291;28;20199;-75
2022/01/31 02:52:46;;;;;;;19.30;5.07;;;;;;;-145.69;100.00;72946.81;5071931;28;20186;-75
2022/01/31 02:55:15;;;;;;;21.87;5.57;;;;;;;-145.69;100.00;72948.81;5072287;28;20203;-75
2022/01/31 02:57:42;;;;;;;20.47;5.80;;;;;;;-145.69;100.00;72916.97;5072092;28;20554;-76
2022/01/31 03:00:09;;;;;;;14.40;5.07;;;;;;;-145.69;100.00;72914.97;5072411;28;20339;-75
2022/01/31 03:02:36;;;;;;;14.07;3.93;;;;;;;-145.69;100.00;72871.19;5072170;28;20202;-76
2022/01/31 03:05:03;;;;;;;15.27;4.40;;;;;;;-145.69;100.00;72871.19;5075634;28;20222;-75
2022/01/31 03:07:30;;;;;;;10.67;3.70;;;;;;;-145.69;100.00;72875.16;5075376;28;20198;-75
2022/01/31 03:09:57;;;;;;;17.70;4.60;;;;;;;-145.69;100.00;72843.31;5075513;28;20202;-75
2022/01/31 03:12:24;;;;;;;21.43;4.30;;;;;;;-145.69;100.00;72829.38;5075486;28;20203;-75
2022/01/31 03:14:51;;;;;;;11.60;4.07;;;;;;;-145.69;100.00;72835.34;5075512;28;20238;-75
2022/01/31 03:17:17;;;;;;;17.77;3.30;;;;;;;-145.69;100.00;72843.31;5075406;28;20286;-75
2022/01/31 03:19:48;;;;;;;17.23;4.07;;;;;;;-145.69;100.00;72845.31;5075354;28;20664;-76
2022/01/31 03:22:19;;;;;;;21.07;4.30;;;;;;;-145.69;100.00;72829.38;5074679;28;20256;-75
2022/01/31 03:24:45;;;;;;;17.90;3.80;;;;;;;-145.69;100.00;72851.28;5075289;28;20232;-75
2022/01/31 03:27:15;;;;;;;19.47;4.53;;;;;;;-145.69;100.00;72853.28;5075102;28;20234;-75
2022/01/31 03:29:43;;;;;;;13.03;4.30;;;;;;;-145.69;100.00;72847.28;5075236;28;20665;-75
2022/01/31 03:32:10;;;;;;;15.63;4.10;;;;;;;-145.69;100.00;72835.34;5074947;28;20206;-75
2022/01/31 03:34:36;;;;;;;13.97;4.33;;;;;;;-145.69;100.00;72827.38;5075157;28;20207;-75
2022/01/31 03:37:06;;;;;;;15.33;5.07;;;;;;;-145.69;100.00;72831.38;5074649;28;20214;-75
2022/01/31 03:39:34;;;;;;;14.23;4.53;;;;;;;-145.69;100.00;72825.41;5075337;28;20203;-76
2022/01/31 03:42:00;;;;;;;11.13;4.17;;;;;;;-145.69;100.00;72809.47;5074733;28;20233;-76
2022/01/31 03:44:29;;;;;;;14.43;4.10;;;;;;;-145.69;100.00;72789.56;5074823;28;20688;-75
2022/01/31 03:46:57;;;;;;;12.03;4.23;;;;;;;-145.69;100.00;72811.47;5074961;28;20205;-75
2022/01/31 03:49:24;;;;;;;11.37;3.97;;;;;;;-145.69;100.00;72811.47;5074447;28;20301;-76
2022/01/31 03:51:56;;;;;;;15.15;4.30;;;;;;;-145.69;100.00;72799.53;5074478;28;20438;-76
2022/01/31 03:54:28;;;;;;;16.67;4.30;;;;;;;-145.69;100.00;72783.59;5074869;28;20293;-75
2022/01/31 03:56:54;;;;;;;10.70;3.90;;;;;;;-145.69;100.00;72767.69;5074622;28;20203;-76
2022/01/31 03:59:21;;;;;;;18.70;3.90;;;;;;;-145.69;100.00;72747.78;5074928;28;20209;-76
2022/01/31 04:01:47;;;;;;;15.00;3.83;;;;;;;-145.69;100.00;72735.81;5074469;28;20195;-75
2022/01/31 04:04:15;;;;;;;14.77;3.90;;;;;;;-145.69;100.00;72721.88;5074629;28;20284;-75
2022/01/31 04:06:45;;;;;;;15.53;3.83;;;;;;;-145.69;100.00;72707.97;5075028;28;20198;-76
2022/01/31 04:09:11;;;;;;;8.67;3.60;;;;;;;-145.69;100.00;72698.00;5074455;28;20207;-76
2022/01/31 04:11:39;;;;;;;6.97;2.93;;;;;;;-145.69;100.00;72694.03;5074282;28;20264;-76
2022/01/31 04:14:06;;;;;;;21.27;3.70;;;;;;;-145.69;100.00;72711.94;5074186;28;20732;-75
2022/01/31 04:16:37;;;;;;;10.67;3.33;;;;;;;-145.69;100.00;72707.97;5073575;28;20203;-76
2022/01/31 04:19:03;;;;;;;17.33;2.90;;;;;;;-145.69;100.00;72688.06;5074296;28;20194;-76
2022/01/31 04:21:32;;;;;;;12.00;2.50;;;;;;;-145.69;100.00;72662.19;5072598;28;20195;-76
2022/01/31 04:24:00;;;;;;;11.20;2.63;;;;;;;-145.69;100.00;72654.22;5054025;28;20209;-75
2022/01/31 04:26:32;;;;;;;9.80;2.60;;;;;;;-145.69;100.00;72664.16;5054268;28;20257;-76
2022/01/31 04:29:05;;;;;;;6.63;2.23;;;;;;;-145.69;100.00;72634.31;5053822;28;20203;-76
2022/01/31 04:31:39;;;;;;;12.83;2.43;;;;;;;-145.69;100.00;72628.34;5054224;28;20226;-75
2022/01/31 04:34:07;;;;;;;10.23;2.90;;;;;;;-145.69;100.00;72628.34;5073653;28;20260;-76
2022/01/31 04:36:35;;;;;;;15.23;2.67;;;;;;;-145.69;100.00;72620.38;5073880;28;20210;-75
2022/01/31 04:39:02;;;;;;;9.53;2.97;;;;;;;-145.69;100.00;72618.38;5074286;28;20202;-76
2022/01/31 04:41:31;;;;;;;12.93;2.80;;;;;;;-145.69;100.00;72612.41;5073805;28;20368;-75
2022/01/31 04:44:03;;;;;;;12.87;2.93;;;;;;;-145.69;100.00;72612.41;5073948;28;20195;-75
2022/01/31 04:46:30;;;;;;;13.47;3.10;;;;;;;-145.69;100.00;72616.41;5073751;28;20195;-75
2022/01/31 04:48:59;;;;;;;18.97;3.47;;;;;;;-145.69;99.44;72608.44;5073508;28;20198;-76
2022/01/31 04:51:26;;;;;;;12.93;2.60;;;;;;;-145.69;99.34;72596.50;5073733;28;20558;-76
2022/01/31 04:53:56;;;;;;;11.17;2.37;;;;;;;-145.69;99.94;72596.50;5073024;28;20202;-75
2022/01/31 04:56:23;;;;;;;10.53;2.47;;;;;;;-145.69;100.00;72580.56;5073502;28;20723;-75
2022/01/31 04:58:49;;;;;;;12.60;2.33;;;;;;;-145.69;97.68;72570.63;5073923;28;20202;-75
2022/01/31 05:01:16;;;;;;;8.70;2.53;;;;;;;-145.69;97.66;72560.66;5072815;28;20225;-75
2022/01/31 05:03:44;;;;;;;9.90;2.10;;;;;;;-145.69;97.08;72542.75;5073578;28;20221;-75
2022/01/31 05:06:13;;;;;;;7.00;2.00;;;;;;;-145.69;96.65;72536.78;5072896;28;20656;-76
2022/01/31 05:08:40;;;;;;;9.90;2.53;;;;;;;-145.69;97.52;72544.75;5072943;28;20313;-75
2022/01/31 05:11:10;;;;;;;6.07;1.90;;;;;;;-145.69;94.89;72522.84;5072966;28;20229;-76
2022/01/31 05:13:38;;;;;;;11.57;2.20;;;;;;;-145.69;95.38;72508.91;5073191;28;20276;-75
2022/01/31 05:16:05;;;;;;;10.60;2.60;;;;;;;-145.69;95.92;72500.94;5073009;28;20225;-76
2022/01/31 05:18:35;;;;;;;13.80;2.37;;;;;;;-145.69;96.79;72506.91;5072752;28;20206;-76
2022/01/31 05:21:04;;;;;;;9.20;2.23;;;;;;;-145.69;94.96;72479.06;5073125;28;20597;-76
2022/01/31 05:23:32;;;;;;;11.00;2.30;;;;;;;-145.69;95.58;72481.03;5073407;28;20232;-77
2022/01/31 05:25:59;;;;;;;9.27;2.27;;;;;;;-145.69;95.69;72469.09;5072581;28;20714;-76
2022/01/31 05:28:27;;;;;;;10.47;2.53;;;;;;;-145.69;96.62;72465.13;5072926;28;20203;-76
2022/01/31 05:30:56;;;;;;;7.47;2.57;;;;;;;-145.69;97.49;72461.13;5073180;28;20202;-76
2022/01/31 05:33:22;;;;;;;15.27;3.00;;;;;;;-145.69;96.72;72453.19;5072862;28;20223;-76
2022/01/31 05:35:49;;;;;;;10.30;2.50;;;;;;;-145.69;98.19;72461.13;5072976;28;20199;-75
2022/01/31 05:38:15;;;;;;;10.77;2.90;;;;;;;-145.69;97.75;72463.13;5073233;28;20222;-76
2022/01/31 05:40:44;;;;;;;13.63;2.37;;;;;;;-145.69;96.37;72433.28;5073223;28;20199;-76
2022/01/31 05:43:13;;;;;;;13.60;2.53;;;;;;;-145.69;97.23;72445.22;5072898;28;20201;-76
2022/01/31 05:45:41;;;;;;;10.47;2.60;;;;;;;-145.69;98.25;72441.25;5072945;28;20233;-76
2022/01/31 05:48:08;;;;;;;12.30;2.47;;;;;;;-145.69;97.51;72427.31;5072669;28;20661;-76
2022/01/31 05:50:34;;;;;;;9.53;2.10;;;;;;;-145.69;96.26;72409.38;5073196;28;20206;-76
2022/01/31 05:53:01;;;;;;;9.90;3.03;;;;;;;-145.69;96.63;72401.44;5072709;28;20205;-76
2022/01/31 05:55:28;;;;;;;10.10;2.47;;;;;;;-145.69;96.82;72391.47;5073014;28;20206;-76
2022/01/31 05:57:54;;;;;;;9.50;3.33;;;;;;;-145.69;98.72;72375.56;5072915;28;20195;-76
2022/01/31 06:00:21;;;;;;;9.13;2.43;;;;;;;-145.69;98.12;72361.63;5072482;28;20194;-75
2022/01/31 06:02:57;;;;;;;13.37;2.63;;;;;;;-145.69;98.65;72349.69;5072688;28;20206;-76
2022/01/31 06:05:23;;;;;;;8.37;2.80;;;;;;;-145.69;98.75;72357.66;5072966;28;20336;-75
2022/01/31 06:07:50;;;;;;;9.30;2.53;;;;;;;-145.69;99.37;72357.66;5072452;28;20187;-76
2022/01/31 06:10:17;;;;;;;10.60;2.80;;;;;;;-145.69;99.42;72337.75;5072762;28;20252;-76
2022/01/31 06:12:44;;;;;;;9.20;2.53;;;;;;;-145.69;99.11;72331.78;5072603;28;20388;-76
2022/01/31 06:15:11;;;;;;;16.17;2.60;;;;;;;-145.69;98.36;72325.81;5072373;28;20234;-76
2022/01/31 06:17:40;;;;;;;9.63;2.37;;;;;;;-145.69;98.92;72315.84;5072400;28;20199;-76
2022/01/31 06:20:14;;;;;;;12.27;3.37;;;;;;;-145.69;97.61;72305.91;5067208;28;20203;-76
2022/01/31 06:22:48;;;;;;;12.43;2.60;;;;;;;-145.69;98.90;72303.91;5065550;28;20592;-76
2022/01/31 06:25:15;;;;;;;10.33;2.57;;;;;;;-145.69;100.00;72301.91;5072393;28;20226;-76
2022/01/31 06:27:42;;;;;;;7.13;2.77;;;;;;;-145.69;100.00;72293.94;5072288;28;20238;-75
2022/01/31 06:30:09;;;;;;;11.77;2.57;;;;;;;-145.69;100.00;72291.97;5072359;28;20202;-75
2022/01/31 06:32:40;;;;;;;5.63;2.53;;;;;;;-145.69;100.00;72297.94;5072286;28;20202;-76
2022/01/31 06:35:13;;;;;;;9.33;2.43;;;;;;;-145.69;100.00;72293.94;5072389;28;20233;-76
2022/01/31 06:37:40;;;;;;;13.40;3.07;;;;;;;-145.69;100.00;72278.03;5071837;28;20202;-76
2022/01/31 06:40:07;;;;;;;11.05;3.05;;;;;;;-145.69;100.00;72282.00;5075082;28;20438;-76
2022/01/31 06:42:34;;;;;;;9.43;2.70;;;;;;;-145.69;100.00;72256.13;5076048;28;20235;-76
2022/01/31 06:45:00;;;;;;;13.43;3.10;;;;;;;-145.69;100.00;72250.16;5076369;28;20233;-75
2022/01/31 06:47:27;;;;;;;8.37;2.63;;;;;;;-145.69;100.00;72258.13;5075527;28;20205;-75
2022/01/31 06:49:53;;;;;;;7.00;2.30;;;;;;;-145.69;100.00;72254.16;5075843;28;20654;-76
2022/01/31 06:52:22;;;;;;;11.07;2.50;;;;;;;-145.69;100.00;72248.19;5075887;28;20205;-76
2022/01/31 06:54:50;;;;;;;8.77;2.77;;;;;;;-145.69;100.00;72250.16;5075868;28;20206;-76
2022/01/31 06:57:23;;;;;;;7.93;2.70;;;;;;;-145.69;100.00;72260.13;5076200;28;20202;-76
2022/01/31 06:59:50;;;;;;;6.30;2.57;;;;;;;-145.69;100.00;72274.06;5075776;28;20535;-76
2022/01/31 07:02:16;;;;;;;8.10;2.90;;;;;;;-145.69;100.00;72282.00;5076031;28;20263;-75
2022/01/31 07:04:43;;;;;;;6.93;2.93;;;;;;;-145.69;100.00;72305.91;5075332;28;20672;-76
2022/01/31 07:07:12;;;;;;;9.00;3.33;;;;;;;-145.69;100.00;72321.81;5075339;28;20199;-76
2022/01/31 07:09:42;;;;;;;10.90;3.13;;;;;;;-145.69;100.00;72331.78;5075871;28;20203;-76
2022/01/31 07:12:12;;;;;;;13.20;3.87;;;;;;;-145.69;100.00;72337.75;5075729;28;20282;-77
2022/01/31 07:14:39;;;;;;;8.50;3.43;;;;;;;-145.69;100.00;72341.72;5075607;28;20710;-75
2022/01/31 07:17:06;;;;;;;10.53;4.03;;;;;;;-145.69;100.00;72351.66;5075678;28;20217;-75
2022/01/31 07:19:39;;;;;;;9.90;3.53;;;;;;;-145.69;100.00;72359.63;5075187;28;20661;-75
2022/01/31 07:22:10;;;;;;;9.00;3.43;;;;;;;-145.69;100.00;72361.63;5075503;28;20187;-76
2022/01/31 07:24:47;;;;;;;14.83;4.10;;;;;;;-145.69;100.00;72377.53;5075727;28;20195;-76
2022/01/31 07:27:17;;;;;;;10.97;3.83;;;;;;;-145.69;100.00;72369.59;5075505;28;20198;-76
2022/01/31 07:29:45;;;;;;;10.30;4.13;;;;;;;-145.69;100.00;72367.59;5075361;28;20209;-75
2022/01/31 07:32:14;;;;;;;8.63;3.90;;;;;;;-145.69;100.00;72361.63;5074914;28;20203;-76
2022/01/31 07:34:41;;;;;;;15.93;5.30;;;;;;;-145.69;100.00;72365.59;5075237;28;20648;-76
2022/01/31 07:37:10;;;;;;;18.00;4.70;;;;;;;-145.69;100.00;72363.63;5075496;28;20210;-75
2022/01/31 07:39:39;;;;;;;15.37;3.83;;;;;;;-145.69;100.00;72353.66;5075269;28;20405;-75
2022/01/31 07:42:08;;;;;;;11.23;4.23;;;;;;;-145.69;100.00;72345.69;5074774;28;20205;-76
2022/01/31 07:44:36;;;;;;;12.90;4.00;;;;;;;-145.69;100.00;72335.75;5074892;28;20310;-76
2022/01/31 07:47:03;;;;;;;7.73;3.73;;;;;;;-145.69;100.00;72333.75;5074460;28;20684;-76
2022/01/31 07:49:30;;;;;;;11.77;3.80;;;;;;;-145.69;100.00;72345.69;5074366;28;20199;-76
2022/01/31 07:51:58;;;;;;;12.93;3.93;;;;;;;-145.69;100.00;72345.69;5074598;28;20202;-75
2022/01/31 07:54:26;;;;;;;7.40;2.93;;;;;;;-145.69;100.00;72337.75;5074827;28;20287;-75
2022/01/31 07:56:53;;;;;;;9.60;3.27;;;;;;;-145.69;100.00;72329.78;5074963;28;20286;-75
2022/01/31 07:59:20;;;;;;;14.47;2.60;;;;;;;-145.69;100.00;72325.81;5074664;28;20214;-76
2022/01/31 08:01:48;;;;;;;6.47;2.37;;;;;;;-145.69;100.00;72329.78;5074574;28;20191;-76
2022/01/31 08:04:14;;;;;;;5.40;2.73;;;;;;;-145.69;100.00;72337.75;5074855;28;20569;-76
2022/01/31 08:06:40;;;;;;;7.20;2.83;;;;;;;-145.69;100.00;72341.72;5074507;28;20226;-75
2022/01/31 08:09:07;;;;;;;6.80;2.83;;;;;;;-145.69;100.00;72337.75;5074663;28;20206;-76
2022/01/31 08:11:35;;;;;;;4.43;2.33;;;;;;;-145.69;100.00;72361.63;5074684;28;20208;-76
2022/01/31 08:14:06;;;;;;;3.53;1.87;;;;;;;-145.69;100.00;72353.66;5074269;28;20233;-76
2022/01/31 08:16:33;;;;;;;2.87;2.00;;;;;;;-145.69;100.00;72357.66;5074584;28;20231;-76
2022/01/31 08:19:00;;;;;;;5.60;2.63;;;;;;;-145.69;100.00;72357.66;5074514;28;20286;-76
2022/01/31 08:21:27;;;;;;;3.53;1.73;;;;;;;-145.69;100.00;72357.66;5074446;28;20566;-75
2022/01/31 08:23:56;;;;;;;3.37;1.90;;;;;;;-145.69;100.00;72361.63;5074045;28;20199;-76
2022/01/31 08:26:23;;;;;;;6.43;2.00;;;;;;;-145.69;100.00;72367.59;5058089;28;20685;-75
2022/01/31 08:28:55;;;;;;;5.60;1.87;;;;;;;-145.69;100.00;72365.59;5055142;28;20202;-76
2022/01/31 08:31:33;;;;;;;7.43;1.87;;;;;;;-145.69;100.00;72371.56;5074150;28;20198;-76
2022/01/31 08:34:07;;;;;;;5.40;1.80;;;;;;;-145.69;100.00;72363.63;5074111;28;20661;-76
2022/01/31 08:36:35;;;;;;;6.80;1.63;;;;;;;-145.69;100.00;72373.56;5074126;28;20224;-76
2022/01/31 08:39:08;;;;;;;5.10;2.10;;;;;;;-145.69;100.00;72385.50;5074038;28;20558;-77
2022/01/31 08:41:35;;;;;;;4.97;1.77;;;;;;;-145.69;100.00;72381.53;5074064;28;20203;-76
2022/01/31 08:44:02;;;;;;;4.17;2.03;;;;;;;-145.69;100.00;72391.47;5073925;28;20283;-76
2022/01/31 08:46:34;;;;;;;4.00;2.23;;;;;;;-145.69;100.00;72405.41;5073792;28;20226;-76
2022/01/31 08:49:02;;;;;;;4.43;2.07;;;;;;;-145.69;100.00;72411.38;5073773;28;20246;-74
2022/01/31 08:51:29;;;;;;;4.37;2.30;;;;;;;-145.69;100.00;72413.38;5073508;28;20206;-75
2022/01/31 08:53:55;;;;;;;2.83;1.83;;;;;;;-145.69;100.00;72409.38;5073931;28;20566;-75
2022/01/31 08:56:22;;;;;;;5.27;2.10;;;;;;;-145.69;100.00;72413.38;5073527;28;20198;-76
2022/01/31 08:58:49;;;;;;;4.83;2.03;;;;;;;-145.69;100.00;72407.41;5073269;28;20274;-76
2022/01/31 09:01:18;;;;;;;4.50;2.07;;;;;;;-145.69;100.00;72423.31;5073423;28;20209;-76
2022/01/31 09:04:01;;;;;;;8.13;2.30;;;;;;;-145.69;100.00;72421.34;5073264;28;20653;-75
2022/01/31 09:06:33;;;;;;;3.20;1.90;;;;;;;-145.69;100.00;72419.34;5073596;28;20230;-76
2022/01/31 09:09:01;;;;;;;6.77;2.37;;;;;;;-145.69;100.00;72427.31;5072926;28;20222;-76
2022/01/31 09:11:29;;;;;;;4.17;2.10;;;;;;;-145.69;100.00;72433.28;5073394;28;20286;-75
2022/01/31 09:13:56;;;;;;;7.10;2.10;;;;;;;-145.69;100.00;72417.34;5073231;28;20261;-76
2022/01/31 09:16:23;;;;;;;6.00;2.40;;;;;;;-145.69;100.00;72403.41;5073192;28;20210;-76
2022/01/31 09:18:49;;;;;;;2.27;1.60;;;;;;;-145.69;100.00;72401.44;5073558;28;20199;-76
2022/01/31 09:21:16;;;;;;;1.90;1.27;;;;;;;-145.69;100.00;72411.38;5073195;28;20198;-76
2022/01/31 09:23:51;;;;;;;2.30;1.10;;;;;;;-145.69;100.00;72401.44;5073378;28;20206;-76
2022/01/31 09:26:18;;;;;;;1.00;0.90;;;;;;;-145.69;100.00;72407.41;5073190;28;20225;-76
2022/01/31 09:28:45;;;;;;;1.33;1.03;;;;;;;-145.69;100.00;72407.41;5073143;28;20202;-76
2022/01/31 09:31:11;;;;;;;0.90;0.90;;;;;;;-145.69;100.00;72437.25;5072815;28;20587;-77
2022/01/31 09:33:38;;;;;;;1.13;0.97;;;;;;;-145.69;100.00;72457.16;5072770;28;20209;-77
2022/01/31 09:36:05;;;;;;;0.80;0.80;;;;;;;-145.69;100.00;72489.00;5072767;28;20194;-77
2022/01/31 09:38:34;;;;;;;5.00;0.87;;;;;;;-145.69;100.00;72485.03;5073092;28;20259;-75
2022/01/31 09:41:04;;;;;;;1.00;0.90;;;;;;;-145.69;100.00;72528.81;5072939;28;20199;-74
2022/01/31 09:43:57;;;;;;;3.47;0.80;;;;;;;-145.69;100.00;72510.91;5052750;28;20199;-76
2022/01/31 09:49:14;;;;;;;1.90;0.90;;;;;;;-145.69;100.00;72477.06;5052460;28;20226;-74
2022/01/31 09:51:41;;;;;;;2.60;1.10;;;;;;;-145.69;100.00;72475.06;5058370;28;20191;-75
2022/01/31 09:54:08;;;;;;;1.60;1.13;;;;;;;-145.69;100.00;72469.09;5072816;28;20203;-74
2022/01/31 09:56:39;;;;;;;1.00;0.90;;;;;;;-145.69;100.00;72479.06;5073032;28;20570;-75
2022/01/31 09:59:08;;;;;;;0.70;0.70;;;;;;;-145.69;100.00;72477.06;5073041;28;20214;-75
2022/01/31 10:01:37;;;;;;;0.97;0.90;;;;;;;-145.69;100.00;72461.13;5072927;28;20203;-75
2022/01/31 10:04:09;;;;;;;2.00;0.93;;;;;;;-145.69;100.00;72475.06;5072545;28;20203;-74
2022/01/31 10:06:37;;;;;;;1.33;1.03;;;;;;;-145.69;100.00;72457.16;5072529;28;20296;-75
2022/01/31 10:09:09;;;;;;;2.83;1.20;;;;;;;-145.69;100.00;72429.28;5071818;28;20661;-74
2022/01/31 10:11:43;;;;;;;1.47;0.90;;;;;;;-145.69;100.00;72419.34;5072219;28;20205;-74
2022/01/31 10:16:56;;;;;;;2.03;1.10;;;;;;;-145.69;100.00;72401.44;5076610;28;20198;-75
2022/01/31 10:19:23;;;;;;;1.10;1.00;;;;;;;-145.69;100.00;72395.47;5087211;28;20210;-74
2022/01/31 10:21:59;;;;;;;3.83;1.20;;;;;;;-145.69;100.00;72379.53;5079513;28;20194;-76
2022/01/31 10:24:27;;;;;;;1.17;1.03;;;;;;;-145.69;100.00;72361.63;5064978;28;20207;-75
2022/01/31 10:26:56;;;;;;;1.93;1.00;;;;;;;-145.69;100.00;72351.66;5062511;28;20222;-75
2022/01/31 10:29:24;;;;;;;5.37;1.50;;;;;;;-145.69;100.00;72329.78;5056153;28;20298;-75
2022/01/31 10:32:05;;;;;;;3.07;1.10;;;;;;;-145.69;100.00;72315.84;5065128;28;20199;-75
2022/01/31 10:34:34;;;;;;;2.17;1.07;;;;;;;-145.69;100.00;72361.63;5076621;28;20206;-76
2022/01/31 10:37:21;;;;;;;2.20;1.40;;;;;;;-145.69;100.00;72369.59;5076071;28;20807;-76
2022/01/31 10:53:57;;;;;;;3.33;1.37;;;;;;;-145.69;100.00;72373.56;5075590;28;20272;-77
2022/01/31 10:56:25;;;;;;;2.50;1.47;;;;;;;-145.69;100.00;72353.66;5075810;28;20660;-76
2022/01/31 10:59:03;;;;;;;4.67;2.13;;;;;;;-145.69;100.00;72321.81;5075500;28;20194;-76
2022/01/31 11:01:32;;;;;;;3.77;1.53;;;;;;;-145.69;100.00;72305.91;5076306;28;20206;-77
2022/01/31 11:04:06;;;;;;;4.67;2.33;;;;;;;-145.69;100.00;72274.06;5075247;28;20577;-75
2022/01/31 11:06:37;;;;;;;4.77;1.30;;;;;;;-145.69;100.00;72246.19;5075650;28;20246;-76
2022/01/31 11:09:07;;;;;;;2.23;1.40;;;;;;;-145.69;100.00;72214.34;5075406;28;20646;-76
2022/01/31 11:11:37;;;;;;;3.37;1.53;;;;;;;-145.69;100.00;72214.34;5075867;28;20199;-77
2022/01/31 11:14:07;;;;;;;4.07;1.50;;;;;;;-145.69;100.00;72206.38;5075628;28;20230;-77
2022/01/31 11:16:34;;;;;;;5.13;1.77;;;;;;;-145.69;100.00;72198.41;5075156;28;20561;-76
2022/01/31 11:19:06;;;;;;;3.10;1.30;;;;;;;-145.69;100.00;72206.38;5075687;28;20209;-76
2022/01/31 11:21:36;;;;;;;5.07;1.73;;;;;;;-145.69;100.00;72248.19;5075319;28;20199;-76
2022/01/31 11:24:05;;;;;;;2.53;1.50;;;;;;;-145.69;100.00;72244.19;5075043;28;20194;-77
2022/01/31 11:26:39;;;;;;;2.90;1.57;;;;;;;-145.69;100.00;72305.91;5075536;28;20580;-76
2022/01/31 11:29:09;;;;;;;2.30;1.50;;;;;;;-145.69;100.00;72339.72;5075408;28;20202;-76
2022/01/31 11:31:39;;;;;;;5.60;2.37;;;;;;;-145.69;100.00;72353.66;5074795;28;20657;-76
2022/01/31 11:34:09;;;;;;;2.63;1.77;;;;;;;-145.69;100.00;72365.59;5075062;28;20210;-77